x

La Perouse Bank (46206) Wave Buoy

1:00pm - Mon 29th May 2017 All times are PDT. -7 hours from GMT.

  • Sig Wave height 2.6ft
  • Peak Period 13s
  • Wind
    11mph, 13mph gusts
  • Sea Temp 54°f
  • Air Temp 52°f
  • Sea Pressure 1018.6mb
  • La Perouse Bank
  • La Perouse Bank

More Historic Weather Station data

Upgrade to MSW Pro to gain access to the past 30 days of data for over 8000 Wavebouys and Weather Stations around the globe.

Join Pro

Comparision Forecast

View Surf forecast
   
Mon 05/29 1:00pm 2.5ft 13s 11 13 mph 1018.6mb 54f 52f
12:00pm 2.5ft 18s 11 13 mph 1018.6mb 54f 52f
11:00am 2.5ft 10s 7 9 mph 1018.7mb 54f 51f
10:00am 2.5ft 14s 9 9 mph 1019mb 54f 51f
9:00am 2.5ft 10s 4 7 mph 1019.1mb 54f 51f
8:00am 2.5ft 10s 9 11 mph 1019.3mb 54f 51f
7:00am 2.5ft 14s 9 11 mph 1019.4mb 54f 51f
6:00am 3ft 10s 4 9 mph 1019.5mb 54f 51f
5:00am 3ft 14s 9 11 mph 1019.4mb 55f 51f
4:00am 3ft 10s 4 7 mph 1019.4mb 55f 51f
3:00am 3.5ft 10s 7 9 mph 1019.6mb 54f 51f
2:00am 3.5ft 10s 9 13 mph 1019.7mb 55f 51f
1:00am 3.5ft 10s 11 16 mph 1019.5mb 54f 51f
12:00am 3.5ft 4s 13 16 mph 1019.3mb 54f 51f
Sun 05/28 11:00pm 3.5ft 4s 13 18 mph 1019.1mb 54f 52f
10:00pm 3.5ft 10s 13 18 mph 1018.8mb 55f 52f
9:00pm 3.5ft 4s 16 20 mph 1018.5mb 55f 52f
8:00pm 3ft 15s 18 20 mph 1018.6mb 55f 53f
7:00pm 3.5ft 10s 16 18 mph 1018.7mb 56f 53f
6:00pm 3ft 10s 16 20 mph 1019.2mb 56f 53f
5:00pm 3ft 10s 16 18 mph 1019.9mb 56f 53f
4:00pm 3ft 10s 13 16 mph 1020.4mb 56f 53f
3:00pm 3ft 10s 13 16 mph 1020.7mb 55f 52f
2:00pm 3.5ft 9s 11 13 mph 1021mb 55f 52f
1:00pm 3.5ft 10s 9 11 mph 1021.2mb 55f 52f
12:00pm 3ft 11s 4 9 mph 1021.7mb 55f 52f
11:00am 3ft 11s 4 7 mph 1021.7mb 55f 52f
10:00am 3ft 10s 2 4 mph 1021.7mb 55f 51f
9:00am 3ft 14s 2 7 mph 1021.6mb 55f 50f
8:00am 3.5ft 9s  -  4 mph 1021.4mb 54f 49f
7:00am 3.5ft 10s 2 4 mph 1020.9mb 55f 49f
6:00am 3.5ft 10s 4 9 mph 1020.6mb 55f 49f
5:00am 3.5ft 10s 2 7 mph 1019.8mb 55f 49f
4:00am 3.5ft 10s 7 9 mph 1019.9mb 54f 49f
3:00am 4ft 10s 9 11 mph 1019.7mb 55f 49f
2:00am 3.5ft 10s 7 11 mph 1019.5mb 55f 50f
1:00am 3.5ft 11s 7 11 mph 1019.2mb 56f 50f
12:00am 4ft 11s 7 9 mph 1019mb 55f 50f
Sat 05/27 11:00pm 4ft 11s 7 9 mph 1019.3mb 55f 52f
10:00pm 4ft 11s 7 9 mph 1019.4mb 55f 52f
9:00pm 4ft 11s 7 9 mph 1019.3mb 55f 53f
8:00pm 3.5ft 11s 7 9 mph 1019.4mb 54f 54f
7:00pm 3.5ft 11s 4 7 mph 1019.3mb 56f 54f
6:00pm 4ft 11s 4 7 mph 1019.5mb 56f 54f
5:00pm 4.5ft 12s 2 4 mph 1019.6mb 56f 53f
4:00pm 4.5ft 11s 2 7 mph 1020.1mb 55f 51f
3:00pm 4.5ft 10s 2 4 mph 1020mb 55f 51f
2:00pm 4.5ft 11s 4 7 mph 1020.4mb 55f 51f
1:00pm 5ft 10s 4 7 mph 1020.4mb 55f 50f
12:00pm 5ft 8s 4 7 mph 1020.3mb 55f 50f
11:00am 4.5ft 11s 7 9 mph 1020mb 55f 49f
10:00am 4.5ft 11s 9 9 mph 1019.9mb 55f 49f
9:00am 4.5ft 11s 4 7 mph 1019.7mb 55f 49f
8:00am 4.5ft 9s 2 7 mph 1019.3mb 54f 49f
7:00am 5.5ft 8s 2 4 mph 1018.7mb 54f 51f
6:00am 6ft 8s  -  2 mph 1018mb 54f 53f
5:00am 6ft 9s 2 4 mph 1017.7mb 55f 53f
4:00am 6ft 8s 2 4 mph 1017.6mb 55f 53f
3:00am 6ft 10s 4 7 mph 1017.3mb 55f 53f
2:00am 6ft 10s 2 4 mph 1017.2mb 55f 53f
1:00am 6ft 9s 4 7 mph 1017.1mb 55f 53f
12:00am 6ft 9s 7 9 mph 1016.9mb 55f 53f
Fri 05/26 11:00pm 6.5ft 10s 7 9 mph 1017mb 55f 54f
10:00pm 6ft 10s 9 9 mph 1016.9mb 55f 53f
9:00pm 5ft 10s 11 13 mph 1016.6mb 55f 54f
8:00pm 5ft 9s 9 11 mph 1016.5mb 55f 54f
7:00pm 5ft 10s 9 11 mph 1016.3mb 55f 55f
6:00pm 5.5ft 10s 9 11 mph 1016.6mb 54f 55f
5:00pm 6ft 10s 9 9 mph 1016.5mb 55f 55f
4:00pm 6ft 9s 9 13 mph 1016.4mb 55f 55f
3:00pm 6.5ft 9s 9 11 mph 1016.3mb 55f 55f
2:00pm 7ft 9s 7 9 mph 1016.3mb 55f 55f
1:00pm 7ft 9s 4 9 mph 1016mb 55f 55f
12:00pm 6ft 9s  -  4 mph 1016mb 55f 56f
11:00am 6ft 9s 2 4 mph 1015.6mb 54f 55f
10:00am 6ft 9s  -  4 mph 1015.5mb 54f 55f
9:00am 5.5ft 9s 2 4 mph 1015.1mb 53f 54f
8:00am 5.5ft 10s  -  2 mph 1014.8mb 53f 54f
7:00am 5.5ft 10s 2 4 mph 1014.4mb 53f 53f
6:00am 6ft 10s  -  4 mph 1014mb 53f 53f
5:00am 6ft 10s  -  4 mph 1013.5mb 53f 52f
4:00am 6ft 10s 2 4 mph 1013.5mb 52f 52f
3:00am 6ft 10s 2 7 mph 1013.3mb 53f 53f
2:00am 6ft 10s 9 11 mph 1013mb 53f 53f
1:00am 7ft 10s 13 18 mph 1012.4mb 53f 53f
12:00am 6.5ft 10s 9 13 mph 1012.7mb 53f 53f
Thu 05/25 11:00pm 6ft 9s 16 18 mph 1012.5mb 53f 53f
10:00pm 6ft 10s 13 16 mph 1012.6mb 53f 53f